Time;durP1;ratioP1;P1;durP2;ratioP2;P2;SDS_P1;SDS_P2;PMS_P1;PMS_P2;Temp;Humidity;BMP_temperature;BMP_pressure;BME280_temperature;BME280_humidity;BME280_pressure;Samples;Min_cycle;Max_cycle;Signal;HPM_P1;HPM_P2
2022/04/02 00:00:36;;;;;;;;;13.50;10.00;;;25.58;95507.98;;;;117065;1193;25647;-38
2022/04/02 00:03:07;;;;;;;;;10.33;9.67;;;25.58;95513.42;;;;117035;1193;26236;-43
2022/04/02 00:05:38;;;;;;;;;10.33;10.00;;;25.57;95513.36;;;;116950;1194;25595;-40
2022/04/02 00:08:08;;;;;;;;;11.25;11.25;;;25.55;95511.23;;;;117047;1193;25828;-40
2022/04/02 00:10:39;;;;;;;;;12.33;10.67;;;25.55;95509.81;;;;116989;1193;25607;-40
2022/04/02 00:13:13;;;;;;;;;12.00;11.00;;;25.54;95514.44;;;;116983;1194;25546;-43
2022/04/02 00:15:44;;;;;;;;;10.67;8.33;;;25.57;95510.70;;;;117055;1192;25573;-38
2022/04/02 00:18:13;;;;;;;;;10.00;9.25;;;25.57;95516.92;;;;117044;1193;25223;-43
2022/04/02 00:20:47;;;;;;;;;12.75;10.75;;;25.55;95516.46;;;;117047;1192;24988;-43
2022/04/02 00:26:24;;;;;;;;;10.33;10.33;;;25.65;95519.86;;;;116843;1194;25365;-37
2022/04/02 00:28:57;;;;;;;;;10.00;10.00;;;25.64;95519.01;;;;117034;1193;26255;-37
2022/04/02 00:31:29;;;;;;;;;14.50;13.00;;;25.63;95521.35;;;;116983;1194;25522;-41
2022/04/02 00:34:03;;;;;;;;;11.75;11.75;;;25.62;95521.71;;;;117076;1193;25758;-41
2022/04/02 00:36:34;;;;;;;;;9.75;9.75;;;25.60;95516.67;;;;116995;1193;25051;-40
2022/04/02 00:39:10;;;;;;;;;12.00;11.00;;;25.62;95516.59;;;;117079;1193;24777;-43
2022/04/02 00:41:41;;;;;;;;;8.50;8.50;;;25.62;95516.86;;;;116997;1193;25607;-41
2022/04/02 00:44:17;;;;;;;;;9.25;9.00;;;25.57;95518.02;;;;116983;1194;24737;-39
2022/04/02 00:46:45;;;;;;;;;14.00;11.50;;;25.57;95517.90;;;;117064;1191;24776;-41
2022/04/02 00:49:16;;;;;;;;;10.50;10.25;;;25.58;95516.50;;;;117078;1193;25523;-38
2022/04/02 00:51:51;;;;;;;;;10.00;9.67;;;25.57;95517.77;;;;117057;1192;25327;-43
2022/04/02 00:54:24;;;;;;;;;13.25;10.25;;;25.58;95521.26;;;;117008;1193;25741;-41
2022/04/02 00:56:54;;;;;;;;;9.00;9.00;;;25.58;95524.82;;;;116984;1193;26690;-39
2022/04/02 00:59:23;;;;;;;;;9.67;9.33;;;25.57;95522.13;;;;117059;1193;25164;-39
2022/04/02 01:01:57;;;;;;;;;9.75;9.75;;;25.56;95525.97;;;;117017;1193;25191;-38
2022/04/02 01:04:29;;;;;;;;;10.67;9.33;;;25.56;95526.90;;;;117021;1193;24816;-40
2022/04/02 01:07:00;;;;;;;;;15.33;12.00;;;25.56;95525.23;;;;117043;1193;25137;-39
2022/04/02 01:09:28;;;;;;;;;10.67;10.00;;;25.56;95521.70;;;;117060;1191;24804;-38
2022/04/02 01:12:02;;;;;;;;;13.50;8.50;;;25.54;95527.52;;;;117035;1192;25892;-38
2022/04/02 01:14:34;;;;;;;;;12.50;9.50;;;25.53;95529.11;;;;117071;1193;25389;-39
2022/04/02 01:17:04;;;;;;;;;12.33;9.00;;;25.54;95528.54;;;;117035;1193;25156;-45
2022/04/02 01:19:41;;;;;;;;;12.25;11.50;;;25.54;95531.23;;;;117085;1193;25292;-39
2022/04/02 01:22:16;;;;;;;;;9.75;9.75;;;25.56;95531.42;;;;117039;1192;25333;-38
2022/04/02 01:24:48;;;;;;;;;16.00;11.25;;;25.56;95534.85;;;;117008;1193;24858;-38
2022/04/02 01:27:22;;;;;;;;;11.50;9.25;;;25.57;95534.04;;;;117007;1193;25389;-40
2022/04/02 01:29:51;;;;;;;;;8.00;8.00;;;25.55;95533.46;;;;117040;1193;25658;-39
2022/04/02 01:32:22;;;;;;;;;11.00;9.25;;;25.55;95539.20;;;;117007;1193;25631;-43
2022/04/02 01:34:51;;;;;;;;;14.67;10.33;;;25.53;95540.89;;;;116905;1193;25138;-37
2022/04/02 01:37:19;;;;;;;;;11.00;9.50;;;25.53;95541.21;;;;117006;1193;25690;-41
2022/04/02 01:39:51;;;;;;;;;9.00;9.00;;;25.53;95541.83;;;;117069;1193;25706;-41
2022/04/02 01:42:24;;;;;;;;;11.75;11.00;;;25.55;95541.24;;;;116933;1193;25711;-37
2022/04/02 01:44:54;;;;;;;;;10.50;10.00;;;25.55;95542.36;;;;116968;1193;25624;-38
2022/04/02 01:47:25;;;;;;;;;12.00;9.25;;;25.57;95543.95;;;;117013;1191;25305;-43
2022/04/02 01:49:55;;;;;;;;;12.67;9.00;;;25.55;95550.67;;;;117062;1192;25313;-40
2022/04/02 01:52:27;;;;;;;;;8.00;8.00;;;25.54;95555.15;;;;117058;1193;24909;-40
2022/04/02 01:54:55;;;;;;;;;11.67;10.33;;;25.53;95556.05;;;;117104;1193;24931;-41
2022/04/02 01:57:32;;;;;;;;;10.00;8.00;;;25.56;95565.14;;;;116974;1192;25831;-40
2022/04/02 02:00:06;;;;;;;;;15.00;11.00;;;25.55;95565.41;;;;117082;1193;24951;-41
2022/04/02 02:02:37;;;;;;;;;12.00;11.67;;;25.56;95567.86;;;;117045;1193;25062;-42
2022/04/02 02:05:08;;;;;;;;;13.75;10.25;;;25.55;95572.68;;;;117030;1193;25399;-42
2022/04/02 02:08:11;;;;;;;;;10.25;9.25;;;25.56;95575.35;;;;117057;1192;26502;-43
2022/04/02 02:10:43;;;;;;;;;14.25;12.50;;;25.64;95575.89;;;;116966;1192;25110;-42
2022/04/02 02:13:15;;;;;;;;;9.67;7.67;;;25.63;95577.88;;;;117084;1193;25298;-40
2022/04/02 02:15:50;;;;;;;;;14.67;11.33;;;25.60;95582.88;;;;117047;1191;25296;-40
2022/04/02 02:18:20;;;;;;;;;12.67;10.33;;;25.58;95586.51;;;;117077;1193;25646;-40
2022/04/02 02:20:50;;;;;;;;;13.75;9.50;;;25.56;95590.59;;;;117054;1192;25754;-41
2022/04/02 02:23:22;;;;;;;;;10.00;8.33;;;25.55;95590.75;;;;117050;1192;25777;-38
2022/04/02 02:25:50;;;;;;;;;11.50;10.00;;;25.54;95587.10;;;;117033;1193;25358;-42
2022/04/02 02:28:19;;;;;;;;;13.50;11.50;;;25.52;95588.48;;;;117068;1192;25173;-43
2022/04/02 02:30:57;;;;;;;;;10.33;9.67;;;25.52;95587.69;;;;117035;1193;25245;-41
2022/04/02 02:36:19;;;;;;;;;10.25;8.50;;;25.52;95588.55;;;;117052;1193;26256;-40
2022/04/02 02:38:52;;;;;;;;;9.33;8.67;;;25.50;95589.98;;;;117060;1193;25451;-39
2022/04/02 02:41:21;;;;;;;;;11.00;10.00;;;25.51;95588.93;;;;117039;1193;25061;-39
2022/04/02 02:43:53;;;;;;;;;11.00;8.50;;;25.50;95591.11;;;;117048;1191;25423;-41
2022/04/02 02:46:24;;;;;;;;;9.50;8.50;;;25.49;95590.77;;;;117053;1193;25149;-38
2022/04/02 02:48:58;;;;;;;;;11.50;10.00;;;25.48;95591.38;;;;117043;1193;25110;-42
2022/04/02 02:51:26;;;;;;;;;13.00;10.25;;;25.48;95591.61;;;;117070;1193;25564;-38
2022/04/02 02:53:57;;;;;;;;;10.25;8.75;;;25.50;95593.60;;;;117026;1193;25069;-40
2022/04/02 02:56:26;;;;;;;;;10.50;9.50;;;25.49;95593.77;;;;117124;1192;26280;-38
2022/04/02 02:58:59;;;;;;;;;10.00;9.50;;;25.50;95595.02;;;;117053;1193;25055;-40
2022/04/02 03:01:29;;;;;;;;;10.00;10.00;;;25.48;95596.97;;;;117047;1192;25661;-42
2022/04/02 03:04:00;;;;;;;;;11.33;8.33;;;25.49;95594.39;;;;117093;1192;25232;-39
2022/04/02 03:06:30;;;;;;;;;9.00;9.00;;;25.50;95595.33;;;;117097;1193;25693;-41
2022/04/02 03:09:03;;;;;;;;;9.50;9.50;;;25.49;95590.58;;;;117042;1192;24747;-41
2022/04/02 03:11:34;;;;;;;;;6.25;6.25;;;25.49;95593.68;;;;117097;1193;25014;-38
2022/04/02 03:14:05;;;;;;;;;12.33;10.33;;;25.48;95589.31;;;;117077;1193;25054;-44
2022/04/02 03:16:35;;;;;;;;;9.50;9.25;;;25.48;95588.45;;;;117062;1191;25629;-41
2022/04/02 03:19:06;;;;;;;;;6.50;6.00;;;25.48;95591.99;;;;117141;1193;25425;-38
2022/04/02 03:21:37;;;;;;;;;10.25;9.00;;;25.50;95592.42;;;;117073;1193;24957;-43
2022/04/02 03:24:08;;;;;;;;;10.25;10.25;;;25.50;95593.60;;;;117057;1193;25527;-39
2022/04/02 03:26:39;;;;;;;;;8.25;8.25;;;25.49;95594.50;;;;117112;1192;25203;-39
2022/04/02 03:29:11;;;;;;;;;9.00;8.67;;;25.49;95592.95;;;;117049;1192;25457;-39
2022/04/02 03:31:39;;;;;;;;;14.33;10.67;;;25.46;95591.71;;;;117029;1193;25701;-40
2022/04/02 03:34:08;;;;;;;;;14.25;10.75;;;25.46;95595.98;;;;117069;1191;24865;-42
2022/04/02 03:36:40;;;;;;;;;10.00;10.00;;;25.46;95594.74;;;;117065;1192;25098;-41
2022/04/02 03:39:11;;;;;;;;;10.33;9.00;;;25.45;95598.59;;;;117030;1193;26138;-40
2022/04/02 03:41:45;;;;;;;;;10.50;9.00;;;25.46;95597.00;;;;117038;1193;24875;-44
2022/04/02 03:44:15;;;;;;;;;12.00;11.00;;;25.47;95600.30;;;;117036;1193;25160;-40
2022/04/02 03:49:46;;;;;;;;;11.50;9.50;;;25.49;95601.85;;;;117055;1191;26859;-46
2022/04/02 03:52:18;;;;;;;;;9.00;8.00;;;25.49;95602.16;;;;117021;1193;25926;-40
2022/04/02 03:54:49;;;;;;;;;10.25;9.75;;;25.49;95606.10;;;;117045;1191;25073;-36
2022/04/02 03:57:18;;;;;;;;;10.00;9.50;;;25.47;95608.33;;;;117061;1193;25211;-41
2022/04/02 03:59:50;;;;;;;;;11.25;8.50;;;25.47;95609.21;;;;117071;1193;24834;-37
2022/04/02 04:02:21;;;;;;;;;12.00;9.00;;;25.46;95611.52;;;;117144;1193;25230;-37
2022/04/02 04:04:50;;;;;;;;;9.75;8.75;;;25.49;95615.85;;;;117098;1193;25398;-42
2022/04/02 04:07:23;;;;;;;;;7.75;7.75;;;25.48;95617.55;;;;117043;1193;25384;-40
2022/04/02 04:09:57;;;;;;;;;11.67;9.00;;;25.46;95619.15;;;;117083;1193;25283;-39
2022/04/02 04:12:33;;;;;;;;;10.25;9.00;;;25.48;95619.40;;;;117069;1193;25573;-42
2022/04/02 04:15:05;;;;;;;;;9.00;9.00;;;25.48;95620.95;;;;117063;1192;24985;-40
2022/04/02 04:17:36;;;;;;;;;8.00;8.00;;;25.47;95625.93;;;;117066;1192;25629;-37
2022/04/02 04:20:09;;;;;;;;;7.75;7.75;;;25.46;95624.35;;;;117071;1192;25350;-39
2022/04/02 04:22:41;;;;;;;;;11.33;8.67;;;25.45;95625.40;;;;117085;1191;25431;-39
2022/04/02 04:25:13;;;;;;;;;8.67;7.67;;;25.46;95628.47;;;;117069;1191;25612;-39
2022/04/02 04:27:46;;;;;;;;;11.75;7.75;;;25.46;95631.58;;;;117119;1192;25230;-42
2022/04/02 04:30:19;;;;;;;;;9.00;8.00;;;25.44;95633.73;;;;117093;1193;24790;-44
2022/04/02 04:32:48;;;;;;;;;9.33;8.00;;;25.44;95630.67;;;;117136;1192;25549;-44
2022/04/02 04:35:19;;;;;;;;;10.67;9.00;;;25.44;95630.61;;;;117127;1192;25403;-41
2022/04/02 04:37:51;;;;;;;;;9.33;9.00;;;25.44;95630.52;;;;117071;1192;25374;-40
2022/04/02 04:40:25;;;;;;;;;10.00;7.00;;;25.45;95634.71;;;;117093;1192;26159;-42
2022/04/02 04:42:58;;;;;;;;;8.50;8.50;;;25.46;95635.05;;;;117092;1192;25452;-41
2022/04/02 04:45:27;;;;;;;;;11.33;10.00;;;25.45;95638.31;;;;117100;1192;25385;-43
2022/04/02 04:47:56;;;;;;;;;13.25;11.75;;;25.45;95638.38;;;;117074;1193;25072;-42
2022/04/02 04:50:30;;;;;;;;;11.00;9.00;;;25.44;95638.61;;;;117077;1193;25636;-43
2022/04/02 04:53:01;;;;;;;;;12.25;9.75;;;25.44;95640.75;;;;117080;1192;25236;-42
2022/04/02 04:55:33;;;;;;;;;7.67;7.33;;;25.45;95640.91;;;;117150;1193;25184;-44
2022/04/02 04:58:03;;;;;;;;;10.25;9.25;;;25.46;95643.96;;;;117118;1192;24881;-41
2022/04/02 05:00:35;;;;;;;;;12.25;10.75;;;25.45;95648.77;;;;117079;1193;25090;-40
2022/04/02 05:03:04;;;;;;;;;10.50;8.75;;;25.43;95653.16;;;;117091;1193;24939;-43
2022/04/02 05:05:37;;;;;;;;;8.75;7.50;;;25.42;95652.75;;;;117096;1192;24910;-42
2022/04/02 05:08:10;;;;;;;;;9.25;9.00;;;25.43;95655.41;;;;117110;1193;25393;-39
2022/04/02 05:10:43;;;;;;;;;12.00;9.67;;;25.43;95658.62;;;;117119;1192;25206;-39
2022/04/02 05:13:15;;;;;;;;;11.00;10.00;;;25.44;95661.59;;;;117103;1192;25790;-38
2022/04/02 05:15:48;;;;;;;;;8.67;8.67;;;25.44;95665.57;;;;117083;1192;25430;-42
2022/04/02 05:18:16;;;;;;;;;8.67;8.33;;;25.44;95664.83;;;;117073;1193;26035;-41
2022/04/02 05:20:49;;;;;;;;;10.00;8.67;;;25.44;95666.36;;;;117104;1192;24749;-40
2022/04/02 05:23:20;;;;;;;;;12.25;11.00;;;25.42;95669.19;;;;117081;1193;24823;-43
2022/04/02 05:25:53;;;;;;;;;11.50;10.00;;;25.42;95670.52;;;;117126;1193;24849;-43
2022/04/02 05:28:22;;;;;;;;;4.25;4.25;;;25.42;95672.36;;;;117069;1192;25194;-42
2022/04/02 05:30:52;;;;;;;;;9.00;8.00;;;25.41;95676.09;;;;117074;1193;25277;-42
2022/04/02 05:33:22;;;;;;;;;12.33;9.67;;;25.42;95676.75;;;;117098;1193;24776;-42
2022/04/02 05:36:12;;;;;;;;;9.00;7.00;;;25.49;95680.34;;;;117043;1191;25659;-42
2022/04/02 05:38:42;;;;;;;;;9.00;6.50;;;25.51;95683.41;;;;117043;1192;25270;-41
2022/04/02 05:41:12;;;;;;;;;11.75;10.00;;;25.49;95682.41;;;;117070;1193;24913;-39
2022/04/02 05:43:44;;;;;;;;;12.50;10.50;;;25.47;95683.73;;;;116992;1193;26075;-37
2022/04/02 05:46:14;;;;;;;;;7.00;6.75;;;25.46;95683.39;;;;117061;1191;24934;-41
2022/04/02 05:48:47;;;;;;;;;11.75;10.75;;;25.46;95688.61;;;;116964;1193;25231;-40
2022/04/02 05:51:15;;;;;;;;;11.00;10.00;;;25.45;95686.98;;;;116984;1193;26055;-39
2022/04/02 05:53:46;;;;;;;;;9.25;9.25;;;25.45;95692.05;;;;117089;1192;25806;-42
2022/04/02 05:56:22;;;;;;;;;9.50;9.50;;;25.44;95694.33;;;;117087;1193;25685;-40
2022/04/02 05:58:51;;;;;;;;;5.00;5.00;;;25.44;95691.02;;;;117060;1192;24965;-40
2022/04/02 06:01:21;;;;;;;;;10.00;10.00;;;25.44;95691.65;;;;117069;1193;25339;-39
2022/04/02 06:03:50;;;;;;;;;8.67;8.67;;;25.44;95694.33;;;;117032;1192;24951;-42
2022/04/02 06:06:23;;;;;;;;;10.25;9.50;;;25.42;95695.82;;;;117049;1193;25600;-39
2022/04/02 06:08:54;;;;;;;;;6.33;5.67;;;25.43;95703.03;;;;117049;1191;25631;-42
2022/04/02 06:11:27;;;;;;;;;9.00;8.50;;;25.43;95705.69;;;;117103;1193;25108;-40
2022/04/02 06:13:59;;;;;;;;;10.25;10.00;;;25.44;95712.52;;;;117069;1193;25564;-40
2022/04/02 06:16:29;;;;;;;;;13.33;8.33;;;25.44;95712.20;;;;117073;1192;24735;-41
2022/04/02 06:19:00;;;;;;;;;7.75;7.75;;;25.43;95714.13;;;;117100;1193;25670;-41
2022/04/02 06:21:33;;;;;;;;;8.33;6.33;;;25.42;95715.95;;;;117053;1191;25146;-42
2022/04/02 06:24:06;;;;;;;;;10.00;9.00;;;25.42;95714.48;;;;116982;1193;25287;-40
2022/04/02 06:26:40;;;;;;;;;7.33;6.33;;;25.43;95716.45;;;;117059;1192;25082;-37
2022/04/02 06:29:11;;;;;;;;;9.75;9.75;;;25.43;95720.33;;;;117011;1193;25895;-41
2022/04/02 06:31:42;;;;;;;;;7.00;7.00;;;25.43;95721.94;;;;117087;1193;25963;-44
2022/04/02 06:34:11;;;;;;;;;10.25;9.25;;;25.43;95723.72;;;;117075;1192;25643;-38
2022/04/02 06:36:44;;;;;;;;;7.75;7.75;;;25.43;95722.49;;;;117068;1193;24721;-38
2022/04/02 06:39:13;;;;;;;;;10.75;8.25;;;25.43;95723.80;;;;117132;1193;24717;-44
2022/04/02 06:41:45;;;;;;;;;9.50;7.75;;;25.42;95732.92;;;;117076;1193;25440;-42
2022/04/02 06:44:20;;;;;;;;;9.00;9.00;;;25.41;95733.81;;;;117055;1191;25644;-38
2022/04/02 06:46:47;;;;;;;;;8.50;8.00;;;25.42;95737.21;;;;117053;1191;26291;-39
2022/04/02 06:49:18;;;;;;;;;9.75;7.00;;;25.41;95736.90;;;;117095;1193;24982;-39
2022/04/02 06:51:51;;;;;;;;;10.50;9.00;;;25.40;95744.44;;;;117070;1193;24991;-44
2022/04/02 06:54:21;;;;;;;;;9.50;9.50;;;25.39;95746.64;;;;117089;1192;25059;-43
2022/04/02 06:56:55;;;;;;;;;7.75;7.50;;;25.40;95752.61;;;;117061;1193;25391;-42
2022/04/02 06:59:26;;;;;;;;;10.25;10.25;;;25.42;95751.45;;;;117121;1192;26041;-39
2022/04/02 07:01:55;;;;;;;;;8.50;8.00;;;25.42;95757.42;;;;117068;1191;24867;-38
2022/04/02 07:04:25;;;;;;;;;12.00;9.00;;;25.41;95759.08;;;;117117;1192;24960;-39
2022/04/02 07:06:58;;;;;;;;;11.25;8.50;;;25.41;95761.70;;;;117092;1193;26188;-40
2022/04/02 07:09:29;;;;;;;;;5.75;5.50;;;25.41;95760.85;;;;117091;1192;24737;-43
2022/04/02 07:11:59;;;;;;;;;6.50;6.25;;;25.41;95761.21;;;;117088;1193;26150;-44
2022/04/02 07:14:33;;;;;;;;;9.00;9.00;;;25.41;95765.60;;;;117074;1193;25158;-41
2022/04/02 07:17:02;;;;;;;;;9.00;9.00;;;25.41;95769.05;;;;117018;1193;25338;-36
2022/04/02 07:19:34;;;;;;;;;8.00;7.50;;;25.43;95773.91;;;;117043;1193;25439;-41
2022/04/02 07:22:10;;;;;;;;;8.67;8.67;;;25.42;95773.85;;;;117020;1193;24950;-43
2022/04/02 07:24:40;;;;;;;;;8.25;7.50;;;25.44;95777.92;;;;117085;1192;24842;-45
2022/04/02 07:27:11;;;;;;;;;4.00;4.00;;;25.48;95773.17;;;;117027;1193;25635;-41
2022/04/02 07:29:42;;;;;;;;;8.75;8.75;;;25.47;95771.40;;;;116977;1193;25214;-40
2022/04/02 07:32:13;;;;;;;;;9.00;6.67;;;25.47;95774.36;;;;117014;1191;24755;-40
2022/04/02 07:34:42;;;;;;;;;8.33;7.33;;;25.48;95776.23;;;;117084;1193;24965;-41
2022/04/02 07:37:33;;;;;;;;;8.67;7.67;;;25.47;95776.65;;;;116987;1192;24895;-42
2022/04/02 07:40:07;;;;;;;;;10.25;7.00;;;25.55;95778.41;;;;117068;1193;25233;-41
2022/04/02 07:43:07;;;;;;;;;7.00;7.00;;;25.54;95775.89;;;;117104;1191;25402;-42
2022/04/02 07:45:45;;;;;;;;;10.00;9.00;;;25.55;95780.27;;;;117108;1192;25140;-39
2022/04/02 07:48:19;;;;;;;;;9.75;9.75;;;25.53;95779.42;;;;117101;1193;25386;-40
2022/04/02 07:50:52;;;;;;;;;11.00;9.50;;;25.52;95780.48;;;;117094;1192;25086;-42
2022/04/02 07:53:24;;;;;;;;;8.50;8.00;;;25.51;95781.06;;;;117057;1193;25552;-40
2022/04/02 07:56:01;;;;;;;;;8.25;6.75;;;25.51;95782.48;;;;117105;1193;25070;-42
2022/04/02 07:58:32;;;;;;;;;7.67;7.67;;;25.51;95782.61;;;;117044;1193;24871;-42
2022/04/02 08:01:06;;;;;;;;;8.00;6.00;;;25.52;95788.31;;;;117121;1193;25749;-47
2022/04/02 08:03:42;;;;;;;;;9.00;8.00;;;25.53;95791.66;;;;117073;1193;25428;-37
2022/04/02 08:06:14;;;;;;;;;9.75;9.50;;;25.53;95791.14;;;;117050;1193;25140;-41
2022/04/02 08:08:45;;;;;;;;;6.00;6.00;;;25.53;95796.02;;;;117061;1193;24904;-43
2022/04/02 08:11:18;;;;;;;;;9.00;6.75;;;25.51;95794.92;;;;117057;1193;25136;-44
2022/04/02 08:13:50;;;;;;;;;7.00;7.00;;;25.51;95796.59;;;;117065;1192;25085;-40
2022/04/02 08:16:20;;;;;;;;;9.75;8.25;;;25.51;95800.34;;;;117072;1193;25049;-41
2022/04/02 08:19:04;;;;;;;;;6.67;6.67;;;25.52;95799.23;;;;117089;1192;25294;-42
2022/04/02 08:21:34;;;;;;;;;10.50;9.00;;;25.54;95797.92;;;;117126;1191;25066;-41
2022/04/02 08:24:05;;;;;;;;;5.25;5.25;;;25.53;95797.70;;;;117096;1193;25372;-39
2022/04/02 08:26:53;;;;;;;;;9.00;7.50;;;25.52;95795.67;;;;117079;1193;24915;-43
2022/04/02 08:29:27;;;;;;;;;11.00;8.33;;;25.57;95795.18;;;;117089;1193;24957;-37
2022/04/02 08:32:29;;;;;;;;;9.75;8.50;;;25.58;95799.75;;;;117073;1193;25551;-41
2022/04/02 08:35:13;;;;;;;;;6.50;6.50;;;25.60;95802.48;;;;117074;1193;24925;-42
2022/04/02 08:38:11;;;;;;;;;12.00;8.50;;;25.60;95802.09;;;;117127;1193;25422;-42
2022/04/02 08:41:07;;;;;;;;;8.00;7.75;;;25.62;95804.02;;;;117110;1192;25420;-40
2022/04/02 08:44:13;;;;;;;;;7.25;7.25;;;25.65;95804.22;;;;117067;1193;26139;-37
2022/04/02 08:47:12;;;;;;;;;10.25;8.00;;;25.66;95803.52;;;;117113;1193;25024;-39
2022/04/02 08:50:02;;;;;;;;;8.33;8.33;;;25.71;95806.56;;;;117095;1191;25187;-42
2022/04/02 08:52:51;;;;;;;;;11.25;10.50;;;25.75;95808.77;;;;117069;1193;25189;-42
2022/04/02 08:55:38;;;;;;;;;9.25;9.00;;;25.72;95809.36;;;;117061;1193;24896;-41
2022/04/02 08:58:35;;;;;;;;;8.33;7.00;;;25.67;95811.10;;;;117095;1193;26122;-42
2022/04/02 09:01:11;;;;;;;;;10.75;9.00;;;25.68;95809.67;;;;117090;1193;24984;-39
2022/04/02 09:04:30;;;;;;;;;11.00;8.33;;;25.65;95812.12;;;;117055;1193;25626;-37
2022/04/02 09:07:03;;;;;;;;;8.25;7.50;;;25.72;95811.73;;;;117054;1193;24806;-39
2022/04/02 09:09:48;;;;;;;;;8.00;7.25;;;25.66;95812.90;;;;117087;1192;25443;-43
2022/04/02 09:12:42;;;;;;;;;5.33;5.33;;;25.66;95810.80;;;;117048;1192;25054;-40
2022/04/02 09:15:15;;;;;;;;;6.50;6.50;;;25.68;95810.71;;;;117045;1192;25313;-42
2022/04/02 09:18:17;;;;;;;;;7.33;7.33;;;25.66;95811.09;;;;117060;1192;25596;-38
2022/04/02 09:20:52;;;;;;;;;11.00;10.00;;;25.67;95811.23;;;;117025;1192;25120;-40
2022/04/02 09:23:44;;;;;;;;;8.33;5.00;;;25.65;95811.15;;;;117054;1192;25648;-42
2022/04/02 09:26:34;;;;;;;;;7.00;6.67;;;25.65;95813.23;;;;117077;1192;25912;-44
2022/04/02 09:29:15;;;;;;;;;9.67;8.00;;;25.62;95813.13;;;;117089;1192;24949;-39
2022/04/02 09:32:05;;;;;;;;;12.00;10.50;;;25.61;95808.13;;;;117079;1191;25244;-39
2022/04/02 09:35:02;;;;;;;;;6.50;6.50;;;25.61;95809.63;;;;117059;1193;26429;-43
2022/04/02 09:38:08;;;;;;;;;8.25;5.50;;;25.59;95808.88;;;;117092;1193;25021;-42
2022/04/02 09:40:53;;;;;;;;;8.33;8.00;;;25.58;95813.02;;;;117144;1193;25127;-44
2022/04/02 09:43:45;;;;;;;;;8.00;8.00;;;25.57;95811.19;;;;116948;1193;25165;-42
2022/04/02 09:47:07;;;;;;;;;10.00;9.00;;;25.62;95812.64;;;;117083;1192;25113;-43
2022/04/02 09:50:01;;;;;;;;;3.00;3.00;;;25.77;95813.94;;;;116952;1193;25334;-46
2022/04/02 09:52:32;;;;;;;;;9.00;7.00;;;25.80;95815.79;;;;117097;1193;25255;-41
2022/04/02 09:55:09;;;;;;;;;9.33;9.33;;;25.72;95816.94;;;;117070;1192;24902;-42
2022/04/02 09:57:44;;;;;;;;;9.25;7.00;;;25.68;95814.77;;;;117135;1192;25259;-43
2022/04/02 10:00:21;;;;;;;;;8.33;7.67;;;25.65;95819.81;;;;117097;1193;25380;-42
2022/04/02 10:03:00;;;;;;;;;9.00;8.00;;;25.62;95825.96;;;;117057;1193;26419;-40
2022/04/02 10:05:41;;;;;;;;;7.25;7.25;;;25.62;95829.45;;;;117102;1192;25452;-39
2022/04/02 10:08:35;;;;;;;;;5.67;5.67;;;25.62;95831.46;;;;117067;1193;25831;-40
2022/04/02 10:11:08;;;;;;;;;7.00;7.00;;;25.59;95830.94;;;;117068;1191;27057;-39
2022/04/02 10:13:41;;;;;;;;;10.67;7.67;;;25.57;95832.27;;;;117029;1193;25457;-37
2022/04/02 10:16:14;;;;;;;;;8.33;7.00;;;25.56;95831.77;;;;117091;1193;25438;-43
2022/04/02 10:18:48;;;;;;;;;6.75;6.75;;;25.56;95833.90;;;;117121;1192;25880;-38
2022/04/02 10:21:19;;;;;;;;;8.33;8.33;;;25.56;95832.69;;;;117072;1193;25247;-39
2022/04/02 10:24:04;;;;;;;;;9.00;7.00;;;25.56;95832.05;;;;117083;1193;25047;-39
2022/04/02 10:26:44;;;;;;;;;8.50;8.50;;;25.59;95831.71;;;;117069;1192;25704;-40
2022/04/02 10:29:15;;;;;;;;;11.00;8.25;;;25.62;95833.84;;;;117063;1192;25227;-41
2022/04/02 10:32:01;;;;;;;;;7.33;7.00;;;25.61;95834.37;;;;117069;1192;25382;-41
2022/04/02 10:34:41;;;;;;;;;5.75;5.75;;;25.64;95834.23;;;;117074;1193;25201;-42
2022/04/02 10:37:20;;;;;;;;;7.67;6.33;;;25.63;95838.11;;;;117120;1193;26229;-41
2022/04/02 10:40:05;;;;;;;;;7.25;7.25;;;25.62;95838.20;;;;117099;1192;26140;-40
2022/04/02 10:42:34;;;;;;;;;7.75;7.00;;;25.61;95839.14;;;;117095;1193;25062;-39
2022/04/02 10:45:28;;;;;;;;;9.00;7.75;;;25.60;95839.85;;;;117122;1192;25310;-46
2022/04/02 10:48:13;;;;;;;;;9.67;7.67;;;25.69;95837.96;;;;117093;1193;25760;-37
2022/04/02 10:50:44;;;;;;;;;8.00;8.00;;;25.69;95841.62;;;;117107;1192;25057;-37
2022/04/02 10:53:21;;;;;;;;;7.33;7.33;;;25.65;95841.91;;;;117033;1192;25583;-42
2022/04/02 10:55:59;;;;;;;;;5.67;5.00;;;25.62;95838.64;;;;117052;1193;25584;-41
2022/04/02 10:58:39;;;;;;;;;10.67;9.00;;;25.62;95841.30;;;;117059;1193;25484;-44
2022/04/02 11:01:12;;;;;;;;;6.67;6.67;;;25.62;95845.94;;;;117114;1193;25315;-44
2022/04/02 11:03:50;;;;;;;;;7.75;6.75;;;25.62;95851.35;;;;117009;1193;25486;-37
2022/04/02 11:06:46;;;;;;;;;7.25;7.00;;;25.62;95854.39;;;;117021;1193;25408;-38
2022/04/02 11:09:27;;;;;;;;;7.00;7.00;;;25.63;95863.48;;;;117078;1191;25496;-42
2022/04/02 11:12:07;;;;;;;;;6.67;5.67;;;25.61;95866.16;;;;117068;1193;24860;-39
2022/04/02 11:14:38;;;;;;;;;6.75;6.00;;;25.60;95871.64;;;;117090;1193;25667;-42
2022/04/02 11:17:10;;;;;;;;;10.00;7.50;;;25.57;95873.93;;;;117097;1193;25125;-40
2022/04/02 11:19:58;;;;;;;;;7.00;7.00;;;25.57;95877.57;;;;117019;1193;25463;-40
2022/04/02 11:23:01;;;;;;;;;9.00;7.33;;;25.58;95880.43;;;;117094;1193;25522;-43
2022/04/02 11:25:37;;;;;;;;;6.67;5.67;;;25.68;95885.73;;;;117050;1193;25114;-43
2022/04/02 11:28:17;;;;;;;;;7.00;7.00;;;25.66;95889.55;;;;117081;1192;25133;-41
2022/04/02 11:30:51;;;;;;;;;8.00;7.00;;;25.62;95893.80;;;;117080;1193;25701;-42
2022/04/02 11:33:23;;;;;;;;;7.50;7.50;;;25.59;95897.10;;;;117055;1191;26878;-38
2022/04/02 11:36:10;;;;;;;;;9.25;7.75;;;25.56;95898.88;;;;116973;1193;25000;-42
2022/04/02 11:38:43;;;;;;;;;8.00;7.67;;;25.60;95901.93;;;;117044;1193;25781;-41
2022/04/02 11:41:20;;;;;;;;;8.25;8.25;;;25.58;95899.39;;;;117086;1191;25156;-41
2022/04/02 11:43:52;;;;;;;;;7.33;7.33;;;25.57;95899.33;;;;117082;1192;24900;-39
2022/04/02 11:46:24;;;;;;;;;9.00;7.00;;;25.56;95893.46;;;;117042;1193;25527;-40
2022/04/02 11:48:59;;;;;;;;;6.50;4.75;;;25.53;95894.02;;;;117083;1193;25324;-40
2022/04/02 11:51:33;;;;;;;;;4.50;4.00;;;25.53;95897.06;;;;117087;1193;24969;-43
2022/04/02 11:54:07;;;;;;;;;7.67;6.33;;;25.53;95894.79;;;;117077;1193;24884;-40
2022/04/02 11:56:44;;;;;;;;;8.00;6.67;;;25.52;95895.20;;;;117087;1192;25103;-43
2022/04/02 11:59:17;;;;;;;;;7.00;7.00;;;25.54;95896.91;;;;117063;1193;25395;-40
2022/04/02 12:01:53;;;;;;;;;6.75;6.00;;;25.54;95894.82;;;;117078;1193;26535;-40
2022/04/02 12:04:26;;;;;;;;;8.33;7.67;;;25.54;95892.41;;;;117121;1192;25418;-39
2022/04/02 12:07:08;;;;;;;;;9.00;8.00;;;25.54;95890.45;;;;117086;1192;24935;-41
2022/04/02 12:09:52;;;;;;;;;7.00;5.00;;;25.54;95887.79;;;;117064;1192;25404;-42
2022/04/02 12:12:25;;;;;;;;;8.25;8.25;;;25.55;95886.66;;;;117104;1193;26135;-47
2022/04/02 12:14:58;;;;;;;;;7.50;6.25;;;25.54;95886.92;;;;117056;1193;24984;-38
2022/04/02 12:17:34;;;;;;;;;6.50;5.75;;;25.54;95889.91;;;;117088;1191;25587;-38
2022/04/02 12:20:11;;;;;;;;;9.25;7.50;;;25.53;95895.75;;;;117037;1193;25447;-38
2022/04/02 12:22:49;;;;;;;;;5.25;5.25;;;25.53;95895.15;;;;117094;1193;25414;-44
2022/04/02 12:25:21;;;;;;;;;10.00;7.00;;;25.51;95898.91;;;;117059;1193;25032;-42
2022/04/02 12:27:54;;;;;;;;;7.00;6.67;;;25.50;95901.76;;;;117044;1193;25188;-45
2022/04/02 12:30:31;;;;;;;;;8.50;7.00;;;25.49;95904.90;;;;117063;1192;25082;-38
2022/04/02 12:33:15;;;;;;;;;6.33;4.33;;;25.49;95913.99;;;;117055;1193;26211;-42
2022/04/02 12:36:06;;;;;;;;;7.50;7.50;;;25.51;95912.37;;;;117051;1192;25602;-44
2022/04/02 12:38:40;;;;;;;;;6.00;6.00;;;25.54;95915.86;;;;117097;1192;24990;-40
2022/04/02 12:41:24;;;;;;;;;9.50;7.00;;;25.54;95921.43;;;;117066;1193;25091;-40
2022/04/02 12:44:09;;;;;;;;;7.67;7.00;;;25.52;95923.12;;;;117064;1193;24974;-43
2022/04/02 12:46:38;;;;;;;;;9.50;6.25;;;25.53;95923.35;;;;116984;1193;25104;-41
2022/04/02 12:49:32;;;;;;;;;7.00;5.75;;;25.52;95926.47;;;;117151;1193;24971;-37
2022/04/02 12:52:18;;;;;;;;;7.00;6.25;;;25.59;95928.52;;;;117125;1192;25572;-44